Time;durP1;ratioP1;P1;durP2;ratioP2;P2;SDS_P1;SDS_P2;PMS_P1;PMS_P2;Temp;Humidity;BMP_temperature;BMP_pressure;BME280_temperature;BME280_humidity;BME280_pressure;Samples;Min_cycle;Max_cycle;Signal;HPM_P1;HPM_P2
2023/04/23 00:00:22;;;;;;;6.78;1.08;;;36.70;22.10;;;;;;5066085;28;20373;-59
2023/04/23 00:02:52;;;;;;;5.03;0.70;;;36.60;22.00;;;;;;5068114;28;20028;-60
2023/04/23 00:05:19;;;;;;;3.33;1.50;;;36.60;22.10;;;;;;5069312;28;20035;-57
2023/04/23 00:07:46;;;;;;;2.35;1.20;;;36.50;22.70;;;;;;5066986;28;20040;-61
2023/04/23 00:10:12;;;;;;;1.50;0.60;;;36.50;22.70;;;;;;5068737;28;20020;-60
2023/04/23 00:12:39;;;;;;;6.50;0.98;;;36.40;22.10;;;;;;5070851;28;20021;-60
2023/04/23 00:15:07;;;;;;;1.50;0.75;;;36.30;22.30;;;;;;5068529;28;20473;-60
2023/04/23 00:17:33;;;;;;;3.85;1.20;;;36.30;22.80;;;;;;5070229;28;20048;-59
2023/04/23 00:19:59;;;;;;;2.78;0.90;;;36.20;23.20;;;;;;5066997;28;20039;-59
2023/04/23 00:22:26;;;;;;;4.40;1.17;;;36.10;23.50;;;;;;5068158;28;20039;-62
2023/04/23 00:24:52;;;;;;;3.17;0.80;;;36.00;22.90;;;;;;5066674;28;20029;-60
2023/04/23 00:27:20;;;;;;;2.67;0.70;;;36.00;23.50;;;;;;5066246;28;20052;-59
2023/04/23 00:29:46;;;;;;;3.47;0.80;;;35.90;23.50;;;;;;5066687;28;20032;-60
2023/04/23 00:32:13;;;;;;;2.55;0.93;;;35.80;23.10;;;;;;5068406;28;20435;-60
2023/04/23 00:34:40;;;;;;;4.88;1.42;;;35.80;23.50;;;;;;5066534;28;20112;-59
2023/04/23 00:37:06;;;;;;;1.42;0.70;;;35.60;23.70;;;;;;5067014;28;20073;-60
2023/04/23 00:39:34;;;;;;;2.42;0.73;;;35.60;23.30;;;;;;5067137;28;20058;-60
2023/04/23 00:42:05;;;;;;;2.08;1.20;;;35.60;23.70;;;;;;5068334;28;20028;-60
2023/04/23 00:44:32;;;;;;;12.35;5.25;;;35.60;23.60;;;;;;5067343;28;20110;-59
2023/04/23 00:46:59;;;;;;;20.38;14.75;;;35.50;23.40;;;;;;5066332;28;20400;-60
2023/04/23 00:49:26;;;;;;;23.02;13.40;;;35.50;23.20;;;;;;5066613;28;20082;-59
2023/04/23 00:51:52;;;;;;;24.58;12.52;;;35.40;23.10;;;;;;5068590;28;20082;-60
2023/04/23 00:54:19;;;;;;;4.10;1.15;;;35.30;23.50;;;;;;5066882;28;20028;-64
2023/04/23 00:56:45;;;;;;;4.00;1.20;;;35.20;23.60;;;;;;5067579;28;20020;-61
2023/04/23 00:59:12;;;;;;;15.68;14.30;;;35.10;23.60;;;;;;5067532;28;20090;-60
2023/04/23 01:01:39;;;;;;;4.82;1.10;;;35.00;23.80;;;;;;5064985;28;20027;-59
2023/04/23 01:04:06;;;;;;;5.18;1.60;;;34.90;23.70;;;;;;5069897;28;20058;-61
2023/04/23 01:06:33;;;;;;;3.30;1.50;;;34.80;23.90;;;;;;5065507;28;20047;-59
2023/04/23 01:09:00;;;;;;;2.17;1.20;;;34.70;24.00;;;;;;5067102;28;20039;-59
2023/04/23 01:11:26;;;;;;;4.63;1.20;;;34.70;24.60;;;;;;5069957;28;20039;-60
2023/04/23 01:13:53;;;;;;;3.72;1.23;;;34.60;24.50;;;;;;5067337;28;20085;-60
2023/04/23 01:16:19;;;;;;;1.65;0.77;;;34.50;24.50;;;;;;5070041;28;20047;-60
2023/04/23 01:18:45;;;;;;;9.43;1.30;;;34.40;24.30;;;;;;5067194;28;20075;-59
2023/04/23 01:21:13;;;;;;;3.47;1.17;;;34.30;24.50;;;;;;5067217;28;20036;-58
2023/04/23 01:23:40;;;;;;;1.92;1.17;;;34.30;24.60;;;;;;5068348;28;20073;-63
2023/04/23 01:26:07;;;;;;;2.95;0.80;;;34.20;24.50;;;;;;5069431;28;20062;-63
2023/04/23 01:28:34;;;;;;;3.75;1.15;;;33.90;24.50;;;;;;5067010;28;20144;-61
2023/04/23 01:31:01;;;;;;;3.53;1.10;;;33.80;25.00;;;;;;5067126;28;20121;-62
2023/04/23 01:33:28;;;;;;;8.05;1.05;;;33.60;25.20;;;;;;5066409;28;20514;-64
2023/04/23 01:35:55;;;;;;;3.03;1.10;;;33.60;25.60;;;;;;5068213;28;20139;-66
2023/04/23 01:38:22;;;;;;;7.53;1.20;;;33.50;25.60;;;;;;5067092;28;20042;-63
2023/04/23 01:40:49;;;;;;;2.40;0.88;;;33.40;25.90;;;;;;5066585;28;20035;-62
2023/04/23 01:43:16;;;;;;;3.45;1.40;;;33.40;25.40;;;;;;5068108;28;20033;-64
2023/04/23 01:45:42;;;;;;;4.20;0.82;;;33.30;25.40;;;;;;5066828;28;20038;-63
2023/04/23 01:48:09;;;;;;;4.40;0.93;;;33.10;25.70;;;;;;5067602;28;20441;-63
2023/04/23 01:50:35;;;;;;;7.60;0.95;;;33.00;26.00;;;;;;5066893;28;20404;-63
2023/04/23 01:53:02;;;;;;;2.33;0.95;;;32.90;26.20;;;;;;5066844;28;20520;-63
2023/04/23 01:55:28;;;;;;;7.95;1.10;;;32.80;26.20;;;;;;5068720;28;20034;-64
2023/04/23 01:57:55;;;;;;;4.80;1.27;;;32.70;26.40;;;;;;5071624;28;20360;-64
2023/04/23 02:00:22;;;;;;;6.30;1.17;;;32.60;26.50;;;;;;5067880;28;20054;-58
2023/04/23 02:02:51;;;;;;;7.20;1.20;;;32.40;26.60;;;;;;5070161;28;20129;-63
2023/04/23 02:05:19;;;;;;;5.57;1.20;;;32.30;26.50;;;;;;5072002;28;20436;-63
2023/04/23 02:07:47;;;;;;;8.00;1.10;;;32.20;26.70;;;;;;5071912;28;20060;-62
2023/04/23 02:10:14;;;;;;;4.18;1.15;;;32.10;26.70;;;;;;5069174;28;20044;-63
2023/04/23 02:12:41;;;;;;;4.30;1.20;;;32.00;26.80;;;;;;5069456;28;20067;-63
2023/04/23 02:15:09;;;;;;;5.95;1.33;;;31.90;26.80;;;;;;5072100;28;20043;-63
2023/04/23 02:17:35;;;;;;;2.95;1.30;;;31.80;26.90;;;;;;5070953;28;20198;-63
2023/04/23 02:20:02;;;;;;;5.20;1.50;;;31.60;26.80;;;;;;5070295;28;20053;-62
2023/04/23 02:22:30;;;;;;;8.85;1.70;;;31.50;26.70;;;;;;5071732;28;20047;-63
2023/04/23 02:24:57;;;;;;;9.35;2.25;;;31.40;27.30;;;;;;5070731;28;20484;-61
2023/04/23 02:27:23;;;;;;;11.68;2.60;;;31.30;27.80;;;;;;5069752;28;20129;-63
2023/04/23 02:29:50;;;;;;;9.98;3.78;;;31.30;28.40;;;;;;5075688;28;20048;-63
2023/04/23 02:32:17;;;;;;;9.50;4.03;;;31.10;28.60;;;;;;5071715;28;20588;-63
2023/04/23 02:34:43;;;;;;;16.75;4.10;;;31.10;28.90;;;;;;5073785;28;20050;-64
2023/04/23 02:37:10;;;;;;;12.73;4.25;;;31.00;28.90;;;;;;5070835;28;20141;-63
2023/04/23 02:39:40;;;;;;;17.02;4.22;;;30.80;29.20;;;;;;5069447;28;20094;-63
2023/04/23 02:42:06;;;;;;;15.00;3.70;;;30.70;29.20;;;;;;5072970;28;20574;-63
2023/04/23 02:44:33;;;;;;;26.52;3.78;;;30.60;29.40;;;;;;5069068;28;20102;-70
2023/04/23 02:46:59;;;;;;;11.15;2.85;;;30.50;29.50;;;;;;5068145;28;20136;-63
2023/04/23 02:49:26;;;;;;;12.32;2.97;;;30.50;29.50;;;;;;5069206;28;20054;-62
2023/04/23 02:51:52;;;;;;;20.73;3.40;;;30.40;29.70;;;;;;5069395;28;20101;-63
2023/04/23 02:54:19;;;;;;;21.55;4.15;;;30.30;29.60;;;;;;5068958;28;20051;-63
2023/04/23 02:56:45;;;;;;;18.50;5.40;;;30.20;29.80;;;;;;5069227;28;20055;-61
2023/04/23 02:59:11;;;;;;;23.92;5.60;;;30.20;30.00;;;;;;5068201;28;20072;-62
2023/04/23 03:01:38;;;;;;;29.30;6.40;;;30.20;30.20;;;;;;5068644;28;20056;-62
2023/04/23 03:04:04;;;;;;;25.50;5.07;;;30.10;30.40;;;;;;5068331;28;20077;-64
2023/04/23 03:06:33;;;;;;;29.33;5.50;;;30.00;30.60;;;;;;5067389;28;20082;-61
2023/04/23 03:08:59;;;;;;;25.23;7.65;;;30.00;30.60;;;;;;5069966;28;20059;-62
2023/04/23 03:11:26;;;;;;;23.55;6.63;;;29.90;30.60;;;;;;5067798;28;20043;-63
2023/04/23 03:13:52;;;;;;;27.48;7.55;;;29.90;30.80;;;;;;5068549;28;20049;-62
2023/04/23 03:16:19;;;;;;;62.45;39.22;;;29.80;31.00;;;;;;5067586;28;20774;-60
2023/04/23 03:18:45;;;;;;;84.10;46.88;;;29.80;31.30;;;;;;5069134;28;20079;-62
2023/04/23 03:21:12;;;;;;;76.80;48.75;;;29.70;31.60;;;;;;5068234;28;20078;-62
2023/04/23 03:23:38;;;;;;;90.28;55.05;;;29.60;31.40;;;;;;5067101;28;20086;-64
2023/04/23 03:26:04;;;;;;;77.00;46.53;;;29.60;31.40;;;;;;5068448;28;20538;-62
2023/04/23 03:28:32;;;;;;;76.03;51.95;;;29.50;31.50;;;;;;5068270;28;20075;-62
2023/04/23 03:30:58;;;;;;;104.63;65.60;;;29.50;31.70;;;;;;5068565;28;20523;-63
2023/04/23 03:33:24;;;;;;;100.28;60.30;;;29.40;31.90;;;;;;5070378;28;20147;-61
2023/04/23 03:35:51;;;;;;;77.97;44.58;;;29.30;31.90;;;;;;5068610;28;20123;-62
2023/04/23 03:38:17;;;;;;;88.70;38.75;;;29.30;32.10;;;;;;5068865;28;20192;-62
2023/04/23 03:40:44;;;;;;;59.63;33.25;;;29.30;32.10;;;;;;5067251;28;20049;-62
2023/04/23 03:43:11;;;;;;;53.78;28.85;;;29.20;32.10;;;;;;5067491;28;20099;-62
2023/04/23 03:45:37;;;;;;;50.42;26.20;;;29.10;32.40;;;;;;5067369;28;20515;-63
2023/04/23 03:48:03;;;;;;;73.93;28.20;;;29.10;32.50;;;;;;5066944;28;20089;-63
2023/04/23 03:50:33;;;;;;;61.35;27.38;;;29.00;32.50;;;;;;5067839;28;20120;-63
2023/04/23 03:52:59;;;;;;;56.60;25.70;;;29.00;32.90;;;;;;5067222;28;20068;-62
2023/04/23 03:55:26;;;;;;;60.15;23.15;;;28.90;32.80;;;;;;5067627;28;20098;-63
2023/04/23 03:57:52;;;;;;;52.45;18.33;;;28.90;32.80;;;;;;5066856;28;20450;-62
2023/04/23 04:00:19;;;;;;;54.35;19.08;;;28.90;33.00;;;;;;5067999;28;20088;-59
2023/04/23 04:02:45;;;;;;;56.50;18.35;;;28.80;33.20;;;;;;5067840;28;20088;-62
2023/04/23 04:05:12;;;;;;;53.47;18.30;;;28.80;33.30;;;;;;5068107;28;20109;-63
2023/04/23 04:07:39;;;;;;;57.05;19.42;;;28.80;33.70;;;;;;5067747;28;20430;-63
2023/04/23 04:10:06;;;;;;;66.30;18.13;;;28.70;34.90;;;;;;5068378;28;20138;-62
2023/04/23 04:12:33;;;;;;;63.58;19.35;;;28.70;35.00;;;;;;5067322;28;20050;-63
2023/04/23 04:14:59;;;;;;;67.70;20.13;;;28.60;34.30;;;;;;5069227;28;20504;-62
2023/04/23 04:17:26;;;;;;;59.40;20.05;;;28.60;34.10;;;;;;5067317;28;20096;-62
2023/04/23 04:19:52;;;;;;;75.20;23.13;;;28.50;34.30;;;;;;5064327;28;20057;-64
2023/04/23 04:22:18;;;;;;;67.72;24.77;;;28.40;34.70;;;;;;5067890;28;20057;-59
2023/04/23 04:24:46;;;;;;;71.18;27.60;;;28.40;35.00;;;;;;5066433;28;20085;-60
2023/04/23 04:27:13;;;;;;;69.03;27.45;;;28.40;35.40;;;;;;5066558;28;20190;-62
2023/04/23 04:29:39;;;;;;;65.10;24.85;;;28.40;35.30;;;;;;5065510;28;20058;-63
2023/04/23 04:32:08;;;;;;;71.13;23.33;;;28.30;35.00;;;;;;5067427;28;20055;-62
2023/04/23 04:34:37;;;;;;;66.38;22.20;;;28.30;35.30;;;;;;5065102;28;20086;-61
2023/04/23 04:37:03;;;;;;;63.10;20.90;;;28.20;35.90;;;;;;5066319;28;20070;-62
2023/04/23 04:39:30;;;;;;;39.95;17.42;;;28.20;35.60;;;;;;5067070;28;20076;-62
2023/04/23 04:41:56;;;;;;;58.95;19.02;;;28.10;36.30;;;;;;5067105;28;20418;-62
2023/04/23 04:44:24;;;;;;;57.95;16.50;;;28.10;36.60;;;;;;5065865;28;20152;-63
2023/04/23 04:46:51;;;;;;;59.10;15.85;;;28.10;38.00;;;;;;5066531;28;20502;-61
2023/04/23 04:49:18;;;;;;;47.92;14.63;;;28.10;35.90;;;;;;5066658;28;20080;-64
2023/04/23 04:51:45;;;;;;;57.67;17.17;;;28.00;35.20;;;;;;5067291;28;20121;-61
2023/04/23 04:54:11;;;;;;;80.32;26.83;;;28.00;35.50;;;;;;5076540;28;20149;-62
2023/04/23 04:56:37;;;;;;;84.25;34.20;;;28.00;35.60;;;;;;5067196;28;20074;-62
2023/04/23 04:59:04;;;;;;;88.10;28.95;;;28.00;35.10;;;;;;5066174;28;20063;-62
2023/04/23 05:01:31;;;;;;;68.50;22.40;;;28.00;35.50;;;;;;5071435;28;20060;-62
2023/04/23 05:03:58;;;;;;;69.00;22.05;;;28.00;35.80;;;;;;5066248;28;20562;-63
2023/04/23 05:06:24;;;;;;;49.40;16.40;;;27.90;34.50;;;;;;5074377;28;20599;-60
2023/04/23 05:08:51;;;;;;;47.20;14.95;;;28.00;33.90;;;;;;5068075;28;20096;-63
2023/04/23 05:11:18;;;;;;;41.78;10.75;;;28.00;34.00;;;;;;5066952;28;20178;-61
2023/04/23 05:13:46;;;;;;;48.35;9.50;;;28.00;34.40;;;;;;5066239;28;20081;-62
2023/04/23 05:16:13;;;;;;;27.85;7.18;;;28.00;33.90;;;;;;5067289;28;20086;-62
2023/04/23 05:18:40;;;;;;;28.33;7.10;;;28.00;33.80;;;;;;5065129;28;20071;-62
2023/04/23 05:21:07;;;;;;;22.83;6.20;;;28.00;33.60;;;;;;5065252;28;20163;-63
2023/04/23 05:23:34;;;;;;;24.20;6.43;;;28.00;33.70;;;;;;5064192;28;20068;-64
2023/04/23 05:26:02;;;;;;;32.42;6.40;;;28.00;34.10;;;;;;5066128;28;20066;-60
2023/04/23 05:28:29;;;;;;;28.77;6.50;;;28.00;34.70;;;;;;5066813;28;20082;-60
2023/04/23 05:30:56;;;;;;;21.95;5.55;;;27.90;34.60;;;;;;5066920;28;20113;-62
2023/04/23 05:33:23;;;;;;;21.08;4.95;;;27.90;34.90;;;;;;5063828;28;20062;-62
2023/04/23 05:35:50;;;;;;;25.67;4.95;;;27.90;34.90;;;;;;5067257;28;20868;-62
2023/04/23 05:38:16;;;;;;;17.35;4.45;;;27.70;34.90;;;;;;5069498;28;20172;-63
2023/04/23 05:40:43;;;;;;;18.23;4.90;;;27.70;35.10;;;;;;5070704;28;20070;-62
2023/04/23 05:43:10;;;;;;;19.95;4.75;;;27.70;35.40;;;;;;5071157;28;20545;-61
2023/04/23 05:45:36;;;;;;;21.65;5.20;;;27.60;35.60;;;;;;5069524;28;20149;-62
2023/04/23 05:48:03;;;;;;;23.25;4.95;;;27.50;36.80;;;;;;5068620;28;20131;-62
2023/04/23 05:50:29;;;;;;;23.67;5.03;;;27.50;36.60;;;;;;5069376;28;20083;-62
2023/04/23 05:52:56;;;;;;;16.35;4.45;;;27.40;36.60;;;;;;5069496;28;20118;-61
2023/04/23 05:55:22;;;;;;;19.75;3.78;;;27.40;36.60;;;;;;5069858;28;20093;-63
2023/04/23 05:57:49;;;;;;;21.48;4.68;;;27.30;36.90;;;;;;5069676;28;20070;-62
2023/04/23 06:00:16;;;;;;;17.02;5.18;;;27.30;37.30;;;;;;5068348;28;20065;-62
2023/04/23 06:02:42;;;;;;;21.25;6.82;;;27.20;37.30;;;;;;5068840;28;20098;-61
2023/04/23 06:05:09;;;;;;;24.98;6.72;;;27.20;37.40;;;;;;5068640;28;20085;-63
2023/04/23 06:07:35;;;;;;;22.75;6.30;;;27.10;37.40;;;;;;5069626;28;20449;-60
2023/04/23 06:10:04;;;;;;;17.17;5.63;;;27.10;37.40;;;;;;5069087;28;20067;-61
2023/04/23 06:12:31;;;;;;;29.05;6.13;;;27.10;37.80;;;;;;5067104;28;20074;-61
2023/04/23 06:14:57;;;;;;;23.73;6.53;;;27.00;38.30;;;;;;5069389;28;20466;-62
2023/04/23 06:17:24;;;;;;;28.60;5.75;;;27.00;38.40;;;;;;5069626;28;20080;-62
2023/04/23 06:19:50;;;;;;;17.45;5.72;;;26.90;38.80;;;;;;5068582;28;20069;-63
2023/04/23 06:22:17;;;;;;;23.80;5.75;;;26.80;39.40;;;;;;5070794;28;20067;-59
2023/04/23 06:24:43;;;;;;;24.48;5.43;;;26.70;39.70;;;;;;5068316;28;20080;-61
2023/04/23 06:27:10;;;;;;;21.25;5.40;;;26.70;39.70;;;;;;5069597;28;20494;-61
2023/04/23 06:29:36;;;;;;;18.88;5.55;;;26.60;40.30;;;;;;5068174;28;20197;-63
2023/04/23 06:32:03;;;;;;;18.05;5.80;;;26.60;41.60;;;;;;5069849;28;20073;-60
2023/04/23 06:34:30;;;;;;;19.83;5.25;;;26.50;40.20;;;;;;5069167;28;20431;-62
2023/04/23 06:36:57;;;;;;;24.85;5.13;;;26.50;40.40;;;;;;5069718;28;20060;-68
2023/04/23 06:39:23;;;;;;;22.88;5.07;;;26.40;40.60;;;;;;5068342;28;20085;-62
2023/04/23 06:41:49;;;;;;;22.25;5.47;;;26.40;40.70;;;;;;5068767;28;20069;-61
2023/04/23 06:44:16;;;;;;;24.02;5.75;;;26.40;41.30;;;;;;5069282;28;20067;-60
2023/04/23 06:46:42;;;;;;;16.75;5.32;;;26.30;41.20;;;;;;5067730;28;20245;-62
2023/04/23 06:49:09;;;;;;;22.48;5.57;;;26.30;40.70;;;;;;5071365;28;20061;-63
2023/04/23 06:51:35;;;;;;;22.02;5.40;;;26.20;40.90;;;;;;5068304;28;20400;-62
2023/04/23 06:54:01;;;;;;;16.05;6.15;;;26.10;41.10;;;;;;5068962;28;20061;-60
2023/04/23 06:56:28;;;;;;;20.52;5.80;;;26.10;41.50;;;;;;5068186;28;20082;-63
2023/04/23 06:58:54;;;;;;;27.73;6.03;;;26.00;42.00;;;;;;5069218;28;20080;-60
2023/04/23 07:01:21;;;;;;;21.58;5.28;;;26.00;41.60;;;;;;5068347;28;20068;-62
2023/04/23 07:03:50;;;;;;;26.63;6.18;;;26.00;41.80;;;;;;5070141;28;20085;-61
2023/04/23 07:06:16;;;;;;;32.63;6.40;;;26.00;41.80;;;;;;5067331;28;20087;-60
2023/04/23 07:08:44;;;;;;;27.95;7.03;;;26.00;41.90;;;;;;5068301;28;20064;-61
2023/04/23 07:11:11;;;;;;;23.10;7.07;;;26.00;41.60;;;;;;5069819;28;20090;-62
2023/04/23 07:13:38;;;;;;;35.03;8.65;;;25.90;41.70;;;;;;5068747;28;20531;-63
2023/04/23 07:16:04;;;;;;;28.50;7.90;;;25.90;43.30;;;;;;5067628;28;20070;-63
2023/04/23 07:18:31;;;;;;;29.30;8.60;;;25.80;42.40;;;;;;5068151;28;20075;-63
2023/04/23 07:20:58;;;;;;;40.55;9.90;;;25.80;43.00;;;;;;5069735;28;20067;-62
2023/04/23 07:23:24;;;;;;;36.05;9.05;;;25.70;42.40;;;;;;5069501;28;20548;-62
2023/04/23 07:25:51;;;;;;;26.75;8.27;;;25.70;42.50;;;;;;5068476;28;20069;-62
2023/04/23 07:28:18;;;;;;;27.02;9.10;;;25.70;42.20;;;;;;5069419;28;20258;-60
2023/04/23 07:30:44;;;;;;;27.15;8.65;;;25.60;42.30;;;;;;5070740;28;20092;-61
2023/04/23 07:33:11;;;;;;;33.33;9.05;;;25.60;42.20;;;;;;5074144;28;20071;-62
2023/04/23 07:35:37;;;;;;;22.38;9.15;;;25.50;42.20;;;;;;5069133;28;20075;-62
2023/04/23 07:38:04;;;;;;;34.22;8.60;;;25.50;42.60;;;;;;5068541;28;20684;-62
2023/04/23 07:40:31;;;;;;;34.60;9.02;;;25.50;42.70;;;;;;5070530;28;20078;-62
2023/04/23 07:42:58;;;;;;;47.40;11.10;;;25.50;42.80;;;;;;5068771;28;20081;-59
2023/04/23 07:45:24;;;;;;;42.55;11.65;;;25.70;43.80;;;;;;5068829;28;20076;-53
2023/04/23 07:47:50;;;;;;;32.40;11.60;;;26.50;43.10;;;;;;5066751;28;20475;-55
2023/04/23 07:50:17;;;;;;;33.35;12.15;;;27.10;41.70;;;;;;5069624;28;20093;-51
2023/04/23 07:52:43;;;;;;;33.17;11.13;;;27.40;41.20;;;;;;5069491;28;20063;-53
2023/04/23 07:55:10;;;;;;;31.75;11.90;;;27.70;41.00;;;;;;5067498;28;20076;-53
2023/04/23 07:57:36;;;;;;;36.05;13.63;;;27.90;41.40;;;;;;5067898;28;20138;-53
2023/04/23 08:00:07;;;;;;;35.60;14.38;;;28.00;40.80;;;;;;5067160;28;20072;-53
2023/04/23 08:02:34;;;;;;;30.17;14.35;;;28.10;41.90;;;;;;5069333;28;20151;-53
2023/04/23 08:05:01;;;;;;;31.25;13.88;;;28.00;41.00;;;;;;5070247;28;20114;-54
2023/04/23 08:07:28;;;;;;;32.28;12.95;;;27.90;40.70;;;;;;5067922;28;20080;-53
2023/04/23 08:09:55;;;;;;;30.95;12.75;;;27.80;41.20;;;;;;5067506;28;20522;-53
2023/04/23 08:12:21;;;;;;;33.63;11.55;;;27.80;40.80;;;;;;5068593;28;20100;-55
2023/04/23 08:14:49;;;;;;;30.23;10.07;;;27.80;40.30;;;;;;5067947;28;20151;-53
2023/04/23 08:17:16;;;;;;;28.00;8.70;;;27.60;41.40;;;;;;5067121;28;20084;-55
2023/04/23 08:19:42;;;;;;;172.30;21.42;;;27.40;41.50;;;;;;5068046;28;20081;-54
2023/04/23 08:22:09;;;;;;;98.18;12.70;;;27.30;40.70;;;;;;5068493;28;20073;-54
2023/04/23 08:24:35;;;;;;;56.30;10.25;;;27.50;40.70;;;;;;5068880;28;20082;-53
2023/04/23 08:27:02;;;;;;;81.47;11.65;;;27.30;42.00;;;;;;5068256;28;20078;-53
2023/04/23 08:29:28;;;;;;;27.27;9.07;;;27.30;41.50;;;;;;5067152;28;20059;-54
2023/04/23 08:31:55;;;;;;;25.27;8.23;;;27.20;42.90;;;;;;5067734;28;20061;-53
2023/04/23 08:34:21;;;;;;;29.60;8.77;;;27.20;41.50;;;;;;5067655;28;20068;-53
2023/04/23 08:36:48;;;;;;;28.77;8.45;;;27.00;42.70;;;;;;5067352;28;20555;-51
2023/04/23 08:39:14;;;;;;;32.72;8.32;;;27.00;42.10;;;;;;5067824;28;20555;-54
2023/04/23 08:41:43;;;;;;;40.05;11.85;;;26.90;42.10;;;;;;5068802;28;20067;-57
2023/04/23 08:44:24;;;;;;;63.22;17.95;;;26.80;43.10;;;;;;5069253;28;20581;-54
2023/04/23 08:46:53;;;;;;;81.00;22.73;;;26.70;42.50;;;;;;5067859;28;20507;-53
2023/04/23 08:49:19;;;;;;;75.30;25.98;;;26.70;42.60;;;;;;5067365;28;20071;-53
2023/04/23 08:52:03;;;;;;;90.90;30.58;;;26.70;42.90;;;;;;5068312;28;20112;-52
2023/04/23 08:54:33;;;;;;;133.48;41.40;;;26.60;43.20;;;;;;5066816;28;20153;-53
2023/04/23 08:57:00;;;;;;;138.70;41.15;;;26.40;42.00;;;;;;5068471;28;20134;-53
2023/04/23 08:59:30;;;;;;;130.43;40.17;;;26.20;41.80;;;;;;5066974;28;20069;-54
2023/04/23 09:01:59;;;;;;;139.32;41.63;;;26.20;42.30;;;;;;5069843;28;20132;-54
2023/04/23 09:04:26;;;;;;;140.35;43.70;;;26.00;43.00;;;;;;5068365;28;20106;-54
2023/04/23 09:06:54;;;;;;;142.95;45.00;;;26.00;43.40;;;;;;5068383;28;20169;-51
2023/04/23 09:09:22;;;;;;;143.00;45.20;;;25.90;42.90;;;;;;5067135;28;20065;-55
2023/04/23 09:11:49;;;;;;;137.70;43.78;;;25.90;43.00;;;;;;5067187;28;20074;-53
2023/04/23 09:14:16;;;;;;;154.23;46.65;;;25.90;43.90;;;;;;5068343;28;20597;-53
2023/04/23 09:16:43;;;;;;;154.48;47.45;;;25.80;43.70;;;;;;5067997;28;20440;-52
2023/04/23 09:19:10;;;;;;;157.05;49.28;;;25.80;43.10;;;;;;5067300;28;20076;-54
2023/04/23 09:21:39;;;;;;;150.15;46.35;;;25.80;42.80;;;;;;5067808;28;20118;-54
2023/04/23 09:24:10;;;;;;;173.52;51.20;;;25.80;43.60;;;;;;5067302;28;20150;-51
2023/04/23 09:26:47;;;;;;;155.82;48.75;;;25.70;44.20;;;;;;5068413;28;20191;-54
2023/04/23 09:29:19;;;;;;;143.10;43.15;;;25.60;44.00;;;;;;5068837;28;20461;-53
2023/04/23 09:31:50;;;;;;;141.07;42.72;;;25.60;43.90;;;;;;5068986;28;20067;-51
2023/04/23 09:34:18;;;;;;;143.77;42.22;;;25.50;43.90;;;;;;5067889;28;20105;-53
2023/04/23 09:36:46;;;;;;;123.50;40.10;;;25.40;43.90;;;;;;5066817;28;20069;-54
2023/04/23 09:39:15;;;;;;;125.72;40.40;;;25.40;45.30;;;;;;5067699;28;20170;-54
2023/04/23 09:41:42;;;;;;;135.70;39.78;;;25.40;44.40;;;;;;5067796;28;20102;-55
2023/04/23 09:44:08;;;;;;;136.18;42.05;;;25.10;45.30;;;;;;5067142;28;20442;-52
2023/04/23 09:46:37;;;;;;;140.90;43.95;;;25.20;45.00;;;;;;5068714;28;20133;-51
2023/04/23 09:49:08;;;;;;;123.38;39.10;;;25.10;45.10;;;;;;5067332;28;20074;-54
2023/04/23 09:51:41;;;;;;;125.70;38.83;;;25.10;44.90;;;;;;5068068;28;20075;-51
2023/04/23 09:54:26;;;;;;;121.93;38.58;;;25.10;45.80;;;;;;5067106;28;20120;-51
2023/04/23 09:56:56;;;;;;;115.18;37.22;;;25.00;45.10;;;;;;5068816;28;20073;-56
2023/04/23 09:59:24;;;;;;;136.77;40.08;;;25.00;45.10;;;;;;5067706;28;20160;-54
2023/04/23 10:01:54;;;;;;;131.15;40.08;;;24.90;45.50;;;;;;5067588;28;20077;-50
2023/04/23 10:04:24;;;;;;;141.27;40.67;;;24.90;46.00;;;;;;5066142;28;20074;-53
2023/04/23 10:06:55;;;;;;;139.60;41.13;;;24.70;45.40;;;;;;5067325;28;20144;-55
2023/04/23 10:09:26;;;;;;;119.97;39.55;;;24.70;45.90;;;;;;5067946;28;20066;-52
2023/04/23 10:11:55;;;;;;;127.40;39.65;;;24.50;45.60;;;;;;5066200;28;20117;-54
2023/04/23 10:14:22;;;;;;;121.38;38.33;;;24.50;46.50;;;;;;5066354;28;20161;-52
2023/04/23 10:16:59;;;;;;;135.75;40.30;;;24.50;46.80;;;;;;5067856;28;20063;-57
2023/04/23 10:19:30;;;;;;;119.90;38.42;;;24.40;46.90;;;;;;5068374;28;20063;-53
2023/04/23 10:22:03;;;;;;;129.15;40.13;;;24.30;47.50;;;;;;5068754;28;20163;-54
2023/04/23 10:24:32;;;;;;;134.45;38.53;;;24.30;47.90;;;;;;5069603;28;20107;-51
2023/04/23 10:27:01;;;;;;;135.73;40.85;;;24.30;46.70;;;;;;5070042;28;20129;-54
2023/04/23 10:29:32;;;;;;;127.63;37.88;;;24.30;46.90;;;;;;5070474;28;20073;-51
2023/04/23 10:32:05;;;;;;;128.30;39.67;;;24.30;47.00;;;;;;5070372;28;20148;-50
2023/04/23 10:34:32;;;;;;;116.43;40.10;;;24.30;46.80;;;;;;5070986;28;20071;-50
2023/04/23 10:37:00;;;;;;;123.70;39.97;;;24.40;46.60;;;;;;5069895;28;20073;-52
2023/04/23 10:39:35;;;;;;;115.82;37.90;;;24.30;46.10;;;;;;5070823;28;20081;-51
2023/04/23 10:42:03;;;;;;;118.95;36.95;;;24.20;46.10;;;;;;5070959;28;20059;-54
2023/04/23 10:44:42;;;;;;;107.80;31.65;;;24.30;45.70;;;;;;5070769;28;20526;-52
2023/04/23 10:47:15;;;;;;;107.10;28.77;;;24.30;45.60;;;;;;5069833;28;20443;-51
2023/04/23 10:49:43;;;;;;;90.38;26.05;;;24.20;45.20;;;;;;5069486;28;20157;-54
2023/04/23 10:52:10;;;;;;;78.20;24.35;;;24.10;45.10;;;;;;5069548;28;20578;-53
2023/04/23 10:54:36;;;;;;;70.22;22.67;;;24.10;45.00;;;;;;5070862;28;20067;-53
2023/04/23 10:57:07;;;;;;;59.35;20.08;;;24.20;45.10;;;;;;5070345;28;20470;-51
2023/04/23 10:59:37;;;;;;;59.22;18.63;;;24.10;45.00;;;;;;5070147;28;20155;-53
2023/04/23 11:02:11;;;;;;;54.65;15.60;;;24.00;44.70;;;;;;5070722;28;20162;-55
2023/04/23 11:04:57;;;;;;;53.05;16.48;;;24.00;45.10;;;;;;5070946;28;20106;-50
2023/04/23 11:07:31;;;;;;;53.90;15.05;;;24.00;45.60;;;;;;5069388;28;20643;-53
2023/04/23 11:10:14;;;;;;;48.08;15.05;;;24.00;45.30;;;;;;5070029;28;20077;-50
2023/04/23 11:12:40;;;;;;;51.05;13.23;;;24.00;45.80;;;;;;5070249;28;20078;-54
2023/04/23 11:15:14;;;;;;;53.42;13.38;;;24.00;45.30;;;;;;5068878;28;20123;-54
2023/04/23 11:17:46;;;;;;;51.30;11.98;;;24.00;45.50;;;;;;5069344;28;20072;-52
2023/04/23 11:20:20;;;;;;;43.13;10.60;;;23.90;45.20;;;;;;5069534;28;20063;-54
2023/04/23 11:22:48;;;;;;;40.05;10.30;;;24.00;45.20;;;;;;5070286;28;20098;-52
2023/04/23 11:25:19;;;;;;;42.50;11.02;;;23.90;44.90;;;;;;5069564;28;20078;-54
2023/04/23 11:27:47;;;;;;;38.45;10.63;;;23.90;44.70;;;;;;5068562;28;20094;-54
2023/04/23 11:30:14;;;;;;;30.50;8.98;;;23.90;44.70;;;;;;5069421;28;20079;-52
2023/04/23 11:32:43;;;;;;;39.28;8.90;;;23.80;44.80;;;;;;5070053;28;20072;-52
2023/04/23 11:35:12;;;;;;;33.67;8.10;;;23.70;45.60;;;;;;5070280;28;20166;-51
2023/04/23 11:37:42;;;;;;;33.90;8.55;;;23.70;45.00;;;;;;5069684;28;20074;-50
2023/04/23 11:40:12;;;;;;;30.52;7.07;;;23.60;45.20;;;;;;5069921;28;20573;-54
2023/04/23 11:42:48;;;;;;;35.95;7.65;;;23.70;45.40;;;;;;5068287;28;20079;-53
2023/04/23 11:45:28;;;;;;;25.73;6.70;;;23.70;45.10;;;;;;5068137;28;20093;-49
2023/04/23 11:47:56;;;;;;;33.30;6.22;;;23.70;45.00;;;;;;5067381;28;20101;-53
2023/04/23 11:50:27;;;;;;;23.92;5.45;;;23.60;44.80;;;;;;5068562;28;20068;-51
2023/04/23 11:52:54;;;;;;;27.25;5.55;;;23.50;44.70;;;;;;5068986;28;20064;-53
2023/04/23 11:55:21;;;;;;;20.13;5.50;;;23.50;44.70;;;;;;5068586;28;20155;-53
2023/04/23 11:57:49;;;;;;;26.67;6.03;;;23.50;45.00;;;;;;5068872;28;20086;-50
2023/04/23 12:00:21;;;;;;;27.38;5.95;;;23.40;45.40;;;;;;5068987;28;20070;-55
2023/04/23 12:02:59;;;;;;;22.83;5.45;;;23.40;45.70;;;;;;5068039;28;20089;-53
2023/04/23 12:05:35;;;;;;;21.92;4.85;;;23.40;45.50;;;;;;5066679;28;20066;-49
2023/04/23 12:08:15;;;;;;;26.58;5.10;;;23.40;44.90;;;;;;5067917;28;20091;-53
2023/04/23 12:10:59;;;;;;;25.55;4.47;;;23.40;44.60;;;;;;5069826;28;20078;-53
2023/04/23 12:13:32;;;;;;;16.45;4.65;;;23.50;44.40;;;;;;5067126;28;20093;-53
2023/04/23 12:16:04;;;;;;;18.80;4.00;;;23.30;44.10;;;;;;5067644;28;20086;-52
2023/04/23 12:18:32;;;;;;;16.20;4.38;;;23.30;44.10;;;;;;5068944;28;20438;-58
2023/04/23 12:21:06;;;;;;;21.10;3.78;;;23.40;44.40;;;;;;5068233;28;20068;-50
2023/04/23 12:23:34;;;;;;;14.07;4.25;;;23.30;44.00;;;;;;5079203;28;20435;-50
2023/04/23 12:26:05;;;;;;;13.52;3.50;;;23.30;43.70;;;;;;5068182;28;20087;-50
2023/04/23 12:28:32;;;;;;;12.13;3.53;;;23.30;43.50;;;;;;5068833;28;20487;-50
2023/04/23 12:31:01;;;;;;;10.73;3.67;;;23.40;43.20;;;;;;5067757;28;20075;-55
2023/04/23 12:33:29;;;;;;;14.52;3.40;;;23.40;42.30;;;;;;5068889;28;20448;-54
2023/04/23 12:35:56;;;;;;;7.78;2.80;;;23.40;41.30;;;;;;5067845;28;20105;-55